Time;durP1;ratioP1;P1;durP2;ratioP2;P2;SDS_P1;SDS_P2;PMS_P1;PMS_P2;Temp;Humidity;BMP_temperature;BMP_pressure;BME280_temperature;BME280_humidity;BME280_pressure;Samples;Min_cycle;Max_cycle;Signal;HPM_P1;HPM_P2
2023/10/08 00:00:43;;;;;;;8.70;2.92;;;13.80;99.90;;;;;;5043913;28;20092;-77
2023/10/08 00:02:53;;;;;;;8.48;3.78;;;13.80;99.90;;;;;;5048579;28;20051;-77
2023/10/08 00:05:21;;;;;;;9.15;3.13;;;13.80;99.90;;;;;;5046279;28;20451;-77
2023/10/08 00:07:48;;;;;;;6.93;3.03;;;13.80;99.90;;;;;;5044797;28;20041;-77
2023/10/08 00:10:18;;;;;;;10.85;3.80;;;13.80;99.90;;;;;;5038745;28;20071;-77
2023/10/08 00:12:47;;;;;;;11.98;3.15;;;13.80;99.90;;;;;;5047690;28;20099;-77
2023/10/08 00:15:14;;;;;;;10.80;3.22;;;13.80;99.90;;;;;;5050300;28;20126;-76
2023/10/08 00:17:41;;;;;;;8.18;2.92;;;13.70;99.90;;;;;;5051975;28;20053;-77
2023/10/08 00:20:15;;;;;;;6.05;2.63;;;13.70;99.90;;;;;;5044825;28;20068;-77
2023/10/08 00:22:42;;;;;;;4.30;2.20;;;13.70;99.90;;;;;;5048274;28;20128;-77
2023/10/08 00:25:11;;;;;;;7.75;3.13;;;13.70;99.90;;;;;;5020589;28;20045;-76
2023/10/08 00:27:39;;;;;;;5.45;2.35;;;13.70;99.90;;;;;;5047317;28;20056;-77
2023/10/08 00:30:17;;;;;;;5.28;2.55;;;13.70;99.90;;;;;;5048617;28;20447;-77
2023/10/08 00:32:44;;;;;;;6.45;2.13;;;13.70;99.90;;;;;;5032997;28;20053;-77
2023/10/08 00:35:13;;;;;;;3.88;2.22;;;13.60;99.90;;;;;;5044912;28;20049;-77
2023/10/08 00:37:41;;;;;;;5.75;2.78;;;13.60;99.90;;;;;;5048733;28;20142;-77
2023/10/08 00:40:13;;;;;;;4.75;2.58;;;13.50;99.90;;;;;;5038207;28;20046;-77
2023/10/08 00:42:45;;;;;;;5.65;2.70;;;13.50;99.90;;;;;;5048879;28;20253;-77
2023/10/08 00:45:19;;;;;;;7.05;2.25;;;13.50;99.90;;;;;;5051040;28;20073;-77
2023/10/08 00:47:47;;;;;;;7.35;2.70;;;13.50;99.90;;;;;;5049989;28;20069;-77
2023/10/08 00:50:20;;;;;;;8.40;2.63;;;13.50;99.90;;;;;;5045936;28;20045;-77
2023/10/08 00:53:10;;;;;;;7.30;2.33;;;13.40;99.90;;;;;;5046392;28;20064;-77
2023/10/08 00:55:37;;;;;;;7.75;2.53;;;13.40;99.90;;;;;;5044508;28;20053;-77
2023/10/08 00:58:11;;;;;;;4.68;2.17;;;13.40;99.90;;;;;;5050647;28;20075;-77
2023/10/08 01:00:41;;;;;;;4.88;2.45;;;13.40;99.90;;;;;;5052322;28;20057;-77
2023/10/08 01:03:19;;;;;;;5.70;2.45;;;13.30;99.90;;;;;;5044716;28;20069;-77
2023/10/08 01:05:46;;;;;;;6.47;2.95;;;13.30;99.90;;;;;;5048820;28;20054;-77
2023/10/08 01:08:32;;;;;;;6.82;2.72;;;13.30;99.90;;;;;;5040060;28;20448;-77
2023/10/08 01:11:00;;;;;;;5.03;2.45;;;13.30;99.90;;;;;;5047620;28;20037;-77
2023/10/08 01:13:35;;;;;;;6.43;2.37;;;13.20;99.90;;;;;;5049251;28;20473;-77
2023/10/08 01:16:03;;;;;;;5.22;2.30;;;13.20;99.90;;;;;;5047549;28;20044;-77
2023/10/08 01:18:31;;;;;;;7.80;2.85;;;13.20;99.90;;;;;;5042421;28;20102;-77
2023/10/08 01:21:04;;;;;;;8.55;3.15;;;13.20;99.90;;;;;;5048294;28;20049;-77
2023/10/08 01:23:31;;;;;;;7.03;3.30;;;13.10;99.90;;;;;;5041093;28;20115;-77
2023/10/08 01:26:10;;;;;;;6.40;2.95;;;13.10;99.90;;;;;;5045167;28;20041;-77
2023/10/08 01:28:37;;;;;;;5.60;3.00;;;13.10;99.90;;;;;;5049774;28;20070;-77
2023/10/08 01:31:04;;;;;;;7.35;2.78;;;13.10;99.90;;;;;;5049949;28;20098;-76
2023/10/08 01:33:32;;;;;;;4.35;2.30;;;13.00;99.90;;;;;;5042013;28;20632;-77
2023/10/08 01:36:03;;;;;;;7.18;2.75;;;13.00;99.90;;;;;;5048350;28;20090;-77
2023/10/08 01:38:32;;;;;;;5.68;2.35;;;13.00;99.90;;;;;;5021811;28;20057;-78
2023/10/08 01:43:45;;;;;;;6.85;2.28;;;13.00;99.90;;;;;;5049681;28;20057;-77
2023/10/08 01:46:12;;;;;;;8.73;3.10;;;12.90;99.90;;;;;;5047807;28;20069;-77
2023/10/08 01:48:39;;;;;;;5.82;3.00;;;12.90;99.90;;;;;;5042225;28;20509;-77
2023/10/08 01:51:11;;;;;;;8.27;2.90;;;12.90;99.90;;;;;;5032483;28;20045;-77
2023/10/08 01:53:38;;;;;;;7.05;2.55;;;12.90;99.90;;;;;;5038766;28;20049;-77
2023/10/08 01:56:05;;;;;;;7.18;2.88;;;12.90;99.90;;;;;;5034805;28;20049;-77
2023/10/08 01:58:33;;;;;;;8.48;4.32;;;12.80;99.90;;;;;;5045841;28;20053;-76
2023/10/08 02:01:00;;;;;;;6.65;3.17;;;12.80;99.90;;;;;;5047838;28;20049;-77
2023/10/08 02:03:27;;;;;;;7.75;2.75;;;12.80;99.90;;;;;;5038737;28;20044;-77
2023/10/08 02:05:58;;;;;;;7.32;3.22;;;12.80;99.90;;;;;;5043775;28;20044;-77
2023/10/08 02:08:26;;;;;;;6.30;2.78;;;12.70;99.90;;;;;;5034846;28;20045;-77
2023/10/08 02:10:53;;;;;;;8.07;2.90;;;12.70;99.90;;;;;;5052211;28;20094;-77
2023/10/08 02:13:19;;;;;;;9.43;3.45;;;12.70;99.90;;;;;;5027002;28;20475;-77
2023/10/08 02:15:51;;;;;;;7.88;3.58;;;12.60;99.90;;;;;;5048183;28;20532;-77
2023/10/08 02:18:19;;;;;;;6.30;3.38;;;12.60;99.90;;;;;;5036681;28;20088;-77
2023/10/08 02:20:46;;;;;;;7.75;3.15;;;12.60;99.90;;;;;;5046485;28;20057;-77
2023/10/08 02:23:13;;;;;;;7.13;3.22;;;12.60;99.90;;;;;;5023607;28;20037;-77
2023/10/08 02:25:40;;;;;;;7.85;3.40;;;12.60;99.90;;;;;;5050475;28;20073;-77
2023/10/08 02:28:15;;;;;;;6.28;3.08;;;12.60;99.90;;;;;;5043756;28;20041;-77
2023/10/08 02:30:43;;;;;;;10.18;3.22;;;12.50;99.90;;;;;;5046432;28;20471;-76
2023/10/08 02:33:15;;;;;;;5.53;2.55;;;12.50;99.90;;;;;;5042824;28;20053;-76
2023/10/08 02:35:44;;;;;;;6.90;2.47;;;12.50;99.90;;;;;;5045069;28;20552;-77
2023/10/08 02:38:13;;;;;;;6.00;2.70;;;12.50;99.90;;;;;;5046014;28;20049;-76
2023/10/08 02:40:46;;;;;;;9.57;2.92;;;12.40;99.90;;;;;;5048281;28;20054;-77
2023/10/08 02:43:15;;;;;;;10.82;3.55;;;12.40;99.90;;;;;;5042265;28;20413;-76
2023/10/08 02:45:47;;;;;;;6.82;2.60;;;12.40;99.90;;;;;;5045484;28;20058;-77
2023/10/08 02:48:15;;;;;;;9.63;3.30;;;12.40;99.90;;;;;;5035380;28;20049;-77
2023/10/08 02:50:45;;;;;;;7.70;2.58;;;12.40;99.90;;;;;;5046392;28;20455;-77
2023/10/08 02:53:12;;;;;;;5.00;3.08;;;12.40;99.90;;;;;;5052016;28;20424;-77
2023/10/08 02:55:43;;;;;;;7.65;3.42;;;12.30;99.90;;;;;;5050376;28;20467;-77
2023/10/08 02:58:18;;;;;;;4.82;2.60;;;12.30;99.90;;;;;;5045027;28;20140;-77
2023/10/08 03:00:47;;;;;;;9.27;3.15;;;12.30;99.90;;;;;;5049236;28;20084;-76
2023/10/08 03:03:22;;;;;;;6.22;3.22;;;12.30;99.90;;;;;;5038347;28;20060;-76
2023/10/08 03:05:51;;;;;;;7.57;3.03;;;12.30;99.90;;;;;;5052857;28;20048;-76
2023/10/08 03:08:23;;;;;;;10.50;3.85;;;12.20;99.90;;;;;;5050755;28;20480;-77
2023/10/08 03:11:02;;;;;;;6.60;3.20;;;12.20;99.90;;;;;;5042501;28;20467;-76
2023/10/08 03:13:29;;;;;;;12.93;3.33;;;12.20;99.90;;;;;;5043744;28;20057;-77
2023/10/08 03:18:35;;;;;;;6.45;2.80;;;12.20;99.90;;;;;;5037005;28;20052;-76
2023/10/08 03:21:20;;;;;;;5.93;2.65;;;12.20;99.90;;;;;;5053790;28;20047;-77
2023/10/08 03:23:51;;;;;;;11.70;3.15;;;12.10;99.90;;;;;;5053248;28;20049;-77
2023/10/08 03:29:06;;;;;;;7.68;3.10;;;12.10;99.90;;;;;;5049540;28;20049;-76
2023/10/08 03:34:19;;;;;;;6.72;2.58;;;12.10;99.90;;;;;;5049266;28;20044;-76
2023/10/08 03:36:49;;;;;;;7.45;3.70;;;12.00;99.90;;;;;;5052589;28;20053;-77
2023/10/08 03:39:20;;;;;;;8.25;3.80;;;12.10;99.90;;;;;;5051581;28;20052;-77
2023/10/08 03:42:05;;;;;;;9.70;3.05;;;12.00;99.90;;;;;;5044985;28;20056;-76
2023/10/08 03:44:36;;;;;;;7.88;3.55;;;12.00;99.90;;;;;;5048207;28;20045;-77
2023/10/08 03:47:10;;;;;;;9.25;3.20;;;12.00;99.90;;;;;;5041292;28;20444;-77
2023/10/08 03:49:45;;;;;;;9.35;3.47;;;12.00;99.90;;;;;;5050013;28;20529;-77
2023/10/08 03:52:15;;;;;;;10.07;3.15;;;12.00;99.90;;;;;;5048154;28;20048;-76
2023/10/08 03:54:48;;;;;;;7.80;3.45;;;12.00;99.90;;;;;;5048828;28;20057;-76
2023/10/08 03:57:19;;;;;;;7.97;3.28;;;11.90;99.90;;;;;;5041615;28;20054;-76
2023/10/08 03:59:55;;;;;;;9.25;3.17;;;11.90;99.90;;;;;;5047970;28;20101;-76
2023/10/08 04:02:39;;;;;;;7.45;2.90;;;11.90;99.90;;;;;;5037354;28;20073;-77
2023/10/08 04:05:19;;;;;;;10.10;3.90;;;11.90;99.90;;;;;;5047109;28;20082;-77
2023/10/08 04:08:16;;;;;;;8.70;3.50;;;11.90;99.90;;;;;;5048497;28;20128;-76
2023/10/08 04:13:14;;;;;;;5.00;2.75;;;11.80;99.90;;;;;;5044625;28;20106;-76
2023/10/08 04:15:41;;;;;;;7.45;3.13;;;11.80;99.90;;;;;;5043962;28;20057;-77
2023/10/08 04:18:10;;;;;;;7.18;3.20;;;11.80;99.90;;;;;;5055490;28;20500;-77
2023/10/08 04:23:13;;;;;;;8.20;3.38;;;11.80;99.90;;;;;;5050881;28;20045;-77
2023/10/08 04:25:43;;;;;;;7.45;3.35;;;11.80;99.90;;;;;;5043617;28;20041;-77
2023/10/08 04:28:17;;;;;;;9.53;3.57;;;11.80;99.90;;;;;;5042088;28;20041;-76
2023/10/08 04:30:45;;;;;;;9.98;3.13;;;11.70;99.90;;;;;;5043780;28;20284;-77
2023/10/08 04:33:12;;;;;;;6.43;3.22;;;11.70;99.90;;;;;;5055508;28;20048;-77
2023/10/08 04:35:48;;;;;;;10.15;4.18;;;11.80;99.90;;;;;;5046790;28;20046;-77
2023/10/08 04:38:21;;;;;;;11.32;4.28;;;11.70;99.90;;;;;;5044527;28;20060;-77
2023/10/08 04:40:51;;;;;;;7.82;3.08;;;11.70;99.90;;;;;;5036943;28;20448;-77
2023/10/08 04:43:27;;;;;;;8.73;3.17;;;11.70;99.90;;;;;;5040050;28;20048;-76
2023/10/08 04:45:58;;;;;;;9.07;3.53;;;11.70;99.90;;;;;;5047857;28;20045;-76
2023/10/08 04:48:30;;;;;;;9.35;3.13;;;11.70;99.90;;;;;;5051030;28;20062;-77
2023/10/08 04:51:02;;;;;;;11.55;3.60;;;11.70;99.90;;;;;;5047829;28;20045;-77
2023/10/08 04:53:32;;;;;;;10.70;3.15;;;11.60;99.90;;;;;;5046929;28;20103;-77
2023/10/08 04:56:05;;;;;;;11.27;3.80;;;11.70;99.90;;;;;;5040822;28;20053;-77
2023/10/08 04:58:36;;;;;;;10.15;3.42;;;11.60;99.90;;;;;;5045626;28;20144;-77
2023/10/08 05:07:01;;;;;;;11.05;3.20;;;11.60;99.90;;;;;;5042980;28;20045;-76
2023/10/08 05:14:34;;;;;;;9.68;4.07;;;11.60;99.90;;;;;;5046328;28;20127;-77
2023/10/08 05:17:11;;;;;;;10.45;3.63;;;11.50;99.90;;;;;;5052734;28;20065;-77
2023/10/08 05:22:18;;;;;;;7.80;3.30;;;11.50;99.90;;;;;;5046976;28;20106;-77
2023/10/08 05:25:08;;;;;;;9.43;3.20;;;11.50;99.90;;;;;;5043265;28;20487;-77
2023/10/08 05:30:25;;;;;;;7.63;2.83;;;11.50;99.90;;;;;;5046930;28;20135;-77
2023/10/08 05:38:15;;;;;;;8.98;3.60;;;11.40;99.90;;;;;;5045473;28;20075;-77
2023/10/08 05:49:15;;;;;;;10.40;4.35;;;11.40;99.90;;;;;;5045359;28;20067;-76
2023/10/08 05:57:14;;;;;;;;;;;11.40;99.90;;;;;;5036413;28;20099;-77
2023/10/08 06:02:48;;;;;;;12.20;4.22;;;11.40;99.90;;;;;;5047632;28;20052;-77
2023/10/08 06:05:26;;;;;;;10.85;4.53;;;11.40;99.90;;;;;;5039749;28;20053;-76
2023/10/08 06:13:16;;;;;;;11.73;4.35;;;11.40;99.90;;;;;;5049774;28;20135;-77
2023/10/08 06:15:48;;;;;;;11.18;3.88;;;11.40;99.90;;;;;;5044683;28;20084;-76
2023/10/08 06:18:19;;;;;;;9.55;3.30;;;11.40;99.90;;;;;;5047753;28;20076;-76
2023/10/08 06:20:47;;;;;;;10.90;4.40;;;11.50;99.90;;;;;;5037786;28;20057;-77
2023/10/08 06:23:18;;;;;;;11.55;3.88;;;11.50;99.90;;;;;;5046444;28;20106;-77
2023/10/08 06:25:47;;;;;;;14.23;3.90;;;11.50;99.90;;;;;;5037156;28;20091;-77
2023/10/08 06:28:19;;;;;;;15.90;3.97;;;11.50;99.90;;;;;;5044967;28;20147;-77
2023/10/08 06:30:47;;;;;;;13.48;4.00;;;11.60;99.90;;;;;;5047888;28;20084;-77
2023/10/08 06:33:14;;;;;;;15.60;4.35;;;11.60;99.90;;;;;;5050938;28;20044;-77
2023/10/08 06:36:02;;;;;;;9.75;5.10;;;11.60;99.90;;;;;;5036699;28;20057;-77
2023/10/08 06:38:32;;;;;;;13.00;4.28;;;11.70;99.90;;;;;;5045466;28;20083;-77
2023/10/08 06:43:37;;;;;;;12.80;4.97;;;11.80;99.90;;;;;;5048530;28;20053;-77
2023/10/08 06:46:07;;;;;;;11.00;4.20;;;11.80;99.90;;;;;;5049395;28;20132;-77
2023/10/08 06:48:34;;;;;;;16.50;6.55;;;11.90;99.90;;;;;;5047146;28;20096;-76
2023/10/08 06:51:12;;;;;;;18.75;4.97;;;11.90;99.90;;;;;;5041562;28;20077;-77
2023/10/08 06:53:44;;;;;;;14.48;4.97;;;12.00;99.90;;;;;;5045609;28;20048;-77
2023/10/08 06:56:16;;;;;;;18.67;4.63;;;12.00;99.90;;;;;;5040539;28;20047;-76
2023/10/08 06:58:49;;;;;;;24.70;5.20;;;12.10;99.90;;;;;;5046441;28;20045;-77
2023/10/08 07:01:25;;;;;;;17.33;5.20;;;12.20;99.90;;;;;;5049547;28;20076;-77
2023/10/08 07:03:56;;;;;;;14.70;4.25;;;12.20;99.90;;;;;;5043966;28;20045;-77
2023/10/08 07:06:31;;;;;;;14.48;5.60;;;12.30;99.90;;;;;;5042892;28;20041;-77
2023/10/08 07:08:59;;;;;;;18.20;4.75;;;12.40;99.90;;;;;;5050725;28;20417;-77
2023/10/08 07:11:27;;;;;;;22.48;5.97;;;12.40;99.90;;;;;;5056196;28;20135;-77
2023/10/08 07:13:54;;;;;;;17.73;4.28;;;12.50;99.90;;;;;;5046389;28;20045;-77
2023/10/08 07:16:22;;;;;;;13.52;4.05;;;12.60;99.90;;;;;;5047981;28;20460;-77
2023/10/08 07:18:52;;;;;;;15.25;4.28;;;12.60;99.90;;;;;;5042797;28;20046;-77
2023/10/08 07:21:28;;;;;;;11.57;4.00;;;12.70;99.90;;;;;;5046831;28;20056;-77
2023/10/08 07:23:56;;;;;;;10.98;3.30;;;12.70;99.90;;;;;;5051477;28;20120;-77
2023/10/08 07:26:25;;;;;;;7.43;3.20;;;12.80;99.90;;;;;;5052549;28;20403;-76
2023/10/08 07:28:53;;;;;;;11.73;4.35;;;12.80;99.90;;;;;;5044492;28;20124;-77
2023/10/08 07:31:24;;;;;;;14.10;4.47;;;12.80;99.90;;;;;;5050140;28;20462;-77
2023/10/08 07:33:56;;;;;;;8.90;3.30;;;12.90;99.90;;;;;;5042004;28;20402;-77
2023/10/08 07:36:24;;;;;;;10.50;3.63;;;13.00;99.90;;;;;;5047762;28;20114;-77
2023/10/08 07:38:52;;;;;;;11.10;3.38;;;13.00;99.90;;;;;;5051090;28;20041;-76
2023/10/08 07:41:20;;;;;;;8.68;4.22;;;13.00;99.90;;;;;;5053100;28;20052;-77
2023/10/08 07:43:55;;;;;;;7.60;4.13;;;13.10;99.90;;;;;;5043337;28;20664;-77
2023/10/08 07:46:22;;;;;;;11.60;4.57;;;13.10;99.90;;;;;;5048199;28;20079;-76
2023/10/08 07:48:50;;;;;;;12.68;3.60;;;13.20;99.90;;;;;;5040994;28;20121;-77
2023/10/08 07:51:23;;;;;;;8.77;3.78;;;13.20;99.90;;;;;;5038904;28;20163;-77
2023/10/08 07:53:55;;;;;;;10.02;3.47;;;13.30;99.90;;;;;;5049252;28;20103;-76
2023/10/08 07:56:26;;;;;;;11.27;4.20;;;13.30;99.90;;;;;;5052020;28;20094;-77
2023/10/08 07:58:56;;;;;;;11.63;4.60;;;13.40;99.90;;;;;;5042488;28;20052;-77
2023/10/08 08:01:24;;;;;;;9.10;5.07;;;13.40;99.90;;;;;;5049052;28;20044;-77
2023/10/08 08:03:51;;;;;;;10.00;4.03;;;13.50;99.90;;;;;;5041790;28;20107;-77
2023/10/08 08:06:18;;;;;;;13.70;4.78;;;13.50;99.90;;;;;;5048880;28;20047;-77
2023/10/08 08:08:45;;;;;;;11.70;4.65;;;13.60;99.90;;;;;;5049036;28;20425;-77
2023/10/08 08:11:12;;;;;;;9.02;4.45;;;13.60;99.90;;;;;;5051159;28;20041;-77
2023/10/08 08:13:42;;;;;;;9.07;4.03;;;13.70;99.90;;;;;;5041572;28;20068;-77
2023/10/08 08:16:20;;;;;;;7.38;3.53;;;13.70;99.90;;;;;;5046238;28;20073;-77
2023/10/08 08:18:49;;;;;;;8.98;4.07;;;13.80;99.90;;;;;;5041099;28;20132;-77
2023/10/08 08:21:17;;;;;;;10.13;3.50;;;13.80;99.90;;;;;;5050899;28;20049;-77
2023/10/08 08:23:47;;;;;;;11.00;4.00;;;13.90;99.90;;;;;;5048953;28;20049;-77
2023/10/08 08:26:29;;;;;;;9.00;4.53;;;13.90;99.90;;;;;;5049416;28;20549;-77
2023/10/08 08:28:57;;;;;;;7.68;3.70;;;14.00;99.90;;;;;;5040879;28;20052;-77
2023/10/08 08:31:27;;;;;;;9.68;3.88;;;14.00;99.90;;;;;;5045906;28;20072;-77
2023/10/08 08:33:57;;;;;;;10.25;4.10;;;14.10;99.90;;;;;;5040076;28;20136;-77
2023/10/08 08:36:24;;;;;;;10.13;3.58;;;14.10;99.90;;;;;;5054364;28;20136;-77
2023/10/08 08:38:51;;;;;;;8.80;3.35;;;14.20;99.90;;;;;;5046730;28;20111;-77
2023/10/08 08:41:18;;;;;;;10.35;4.13;;;14.20;99.90;;;;;;5051384;28;20053;-77
2023/10/08 08:43:48;;;;;;;9.40;3.88;;;14.30;99.90;;;;;;5022590;28;20567;-77
2023/10/08 08:46:15;;;;;;;7.68;3.28;;;14.30;99.90;;;;;;5031828;28;20413;-77
2023/10/08 08:48:47;;;;;;;11.07;4.35;;;14.40;99.90;;;;;;5043097;28;20048;-77
2023/10/08 08:51:15;;;;;;;9.73;4.43;;;14.40;99.90;;;;;;5052557;28;20120;-77
2023/10/08 08:53:42;;;;;;;11.75;4.20;;;14.50;99.90;;;;;;5045421;28;20202;-77
2023/10/08 08:56:09;;;;;;;13.98;3.42;;;14.60;99.90;;;;;;5049323;28;20052;-77
2023/10/08 08:58:37;;;;;;;9.13;4.35;;;14.60;99.90;;;;;;5040006;28;20052;-77
2023/10/08 09:01:09;;;;;;;11.43;4.15;;;14.70;99.90;;;;;;5049447;28;20059;-77
2023/10/08 09:03:37;;;;;;;13.45;3.92;;;14.80;99.90;;;;;;5048954;28;20535;-77
2023/10/08 09:06:04;;;;;;;13.55;3.95;;;14.80;99.90;;;;;;5050783;28;20042;-76
2023/10/08 09:08:42;;;;;;;6.57;3.22;;;14.90;99.90;;;;;;5046285;28;20048;-77
2023/10/08 09:11:14;;;;;;;11.55;3.90;;;15.00;99.90;;;;;;5048496;28;20056;-77
2023/10/08 09:13:41;;;;;;;11.20;4.35;;;15.00;99.90;;;;;;5026517;28;20124;-77
2023/10/08 09:16:13;;;;;;;8.10;3.58;;;15.10;99.90;;;;;;5047271;28;20052;-77
2023/10/08 09:18:51;;;;;;;11.55;3.22;;;15.20;99.90;;;;;;5050926;28;20052;-77
2023/10/08 09:21:22;;;;;;;10.95;4.07;;;15.30;99.90;;;;;;5050754;28;20540;-77
2023/10/08 09:23:54;;;;;;;11.95;4.03;;;15.40;99.90;;;;;;5042711;28;20045;-76
2023/10/08 09:26:26;;;;;;;13.57;4.18;;;15.40;99.90;;;;;;5048780;28;20091;-77
2023/10/08 09:28:54;;;;;;;18.85;4.00;;;15.60;99.90;;;;;;5042824;28;20044;-77
2023/10/08 09:31:23;;;;;;;15.93;4.07;;;15.70;99.90;;;;;;5049238;28;20041;-77
2023/10/08 09:33:55;;;;;;;13.02;4.07;;;15.80;99.90;;;;;;5049165;28;20045;-77
2023/10/08 09:36:31;;;;;;;8.57;3.72;;;15.90;99.90;;;;;;5049365;28;20516;-78
2023/10/08 09:39:06;;;;;;;15.95;4.80;;;16.10;99.90;;;;;;5025292;28;20045;-77
2023/10/08 09:41:34;;;;;;;13.32;3.63;;;16.20;99.90;;;;;;5044803;28;20049;-77
2023/10/08 09:44:04;;;;;;;14.68;4.28;;;16.40;99.90;;;;;;5033118;28;20515;-77
2023/10/08 09:46:36;;;;;;;12.90;3.63;;;16.60;99.90;;;;;;5052503;28;20045;-77
2023/10/08 09:49:07;;;;;;;12.25;5.70;;;16.90;99.90;;;;;;5048140;28;20040;-77
2023/10/08 09:51:39;;;;;;;10.85;4.00;;;17.00;99.90;;;;;;5043208;28;20051;-77
2023/10/08 09:54:15;;;;;;;9.30;3.55;;;17.20;99.90;;;;;;5044760;28;20081;-77
2023/10/08 09:56:44;;;;;;;13.35;5.43;;;17.40;99.90;;;;;;5039430;28;20069;-77
2023/10/08 09:59:11;;;;;;;8.68;3.67;;;17.50;99.90;;;;;;5044990;28;20045;-77
2023/10/08 10:01:40;;;;;;;8.88;3.35;;;17.60;99.90;;;;;;5051637;28;20121;-77
2023/10/08 10:04:10;;;;;;;9.60;3.75;;;17.70;99.90;;;;;;5048339;28;20049;-77
2023/10/08 10:06:42;;;;;;;16.63;4.47;;;17.80;99.90;;;;;;5034720;28;20499;-77
2023/10/08 10:09:15;;;;;;;11.77;3.90;;;17.90;99.90;;;;;;5044140;28;20488;-77
2023/10/08 10:11:50;;;;;;;10.90;4.13;;;17.90;99.90;;;;;;5043514;28;20056;-77
2023/10/08 10:14:17;;;;;;;8.63;3.58;;;18.00;99.90;;;;;;5048245;28;20072;-77
2023/10/08 10:16:49;;;;;;;10.02;3.55;;;18.10;99.90;;;;;;5049102;28;20045;-77
2023/10/08 10:19:20;;;;;;;9.50;3.70;;;18.10;99.90;;;;;;5049929;28;20050;-77
2023/10/08 10:21:48;;;;;;;11.80;4.18;;;18.20;99.90;;;;;;5042442;28;20107;-78
2023/10/08 10:24:35;;;;;;;11.13;3.40;;;18.30;99.90;;;;;;5044666;28;20048;-77
2023/10/08 10:27:15;;;;;;;14.05;4.18;;;18.40;99.90;;;;;;5046004;28;20125;-77
2023/10/08 10:29:43;;;;;;;16.27;4.03;;;18.50;99.90;;;;;;5050222;28;20471;-77
2023/10/08 10:32:14;;;;;;;8.88;3.28;;;18.50;99.90;;;;;;5047883;28;20044;-77
2023/10/08 10:34:51;;;;;;;11.40;3.58;;;18.60;99.90;;;;;;5047945;28;20106;-77
2023/10/08 10:37:19;;;;;;;18.77;3.85;;;18.60;99.90;;;;;;5042324;28;20045;-78
2023/10/08 10:39:55;;;;;;;13.60;3.70;;;18.70;99.90;;;;;;5044015;28;20040;-77
2023/10/08 10:42:22;;;;;;;14.77;3.67;;;18.80;99.90;;;;;;5040308;28;20049;-78
2023/10/08 10:44:49;;;;;;;14.68;3.58;;;18.90;99.90;;;;;;5052171;28;20095;-77
2023/10/08 10:52:31;;;;;;;16.02;3.65;;;19.30;99.90;;;;;;5040757;28;20100;-77
2023/10/08 10:57:44;;;;;;;12.23;3.17;;;19.60;99.90;;;;;;5051265;28;20098;-78
2023/10/08 11:03:02;;;;;;;8.25;3.35;;;20.00;99.90;;;;;;5044098;28;20045;-77
2023/10/08 11:05:31;;;;;;;15.65;3.80;;;20.10;99.90;;;;;;5047152;28;20115;-77
2023/10/08 11:08:06;;;;;;;10.18;3.33;;;20.30;99.90;;;;;;5037796;28;20053;-78
2023/10/08 11:10:38;;;;;;;13.43;3.13;;;20.40;99.90;;;;;;5048138;28;20462;-77
2023/10/08 11:13:14;;;;;;;10.27;3.25;;;20.60;99.90;;;;;;5054470;28;20088;-77
2023/10/08 11:15:51;;;;;;;10.95;3.65;;;20.70;99.90;;;;;;5050248;28;20041;-77
2023/10/08 11:18:21;;;;;;;11.23;3.75;;;20.80;99.90;;;;;;5051700;28;20089;-77
2023/10/08 11:20:54;;;;;;;15.90;4.15;;;20.80;99.90;;;;;;5046817;28;20063;-78
2023/10/08 11:23:34;;;;;;;16.83;3.90;;;20.80;99.90;;;;;;5047236;28;20060;-78
2023/10/08 11:26:05;;;;;;;15.52;3.80;;;20.80;99.90;;;;;;5047080;28;20507;-77
2023/10/08 11:28:41;;;;;;;12.35;3.45;;;20.90;99.90;;;;;;5043778;28;20067;-78
2023/10/08 11:31:13;;;;;;;14.27;3.85;;;20.90;99.90;;;;;;5047371;28;20048;-78
2023/10/08 11:33:42;;;;;;;12.88;3.78;;;20.90;99.90;;;;;;5033548;28;20052;-77
2023/10/08 11:36:19;;;;;;;7.35;3.05;;;20.90;99.90;;;;;;5042568;28;20053;-77
2023/10/08 11:38:47;;;;;;;13.05;4.28;;;21.00;99.90;;;;;;5047696;28;20072;-77
2023/10/08 11:41:21;;;;;;;10.23;3.20;;;20.90;99.90;;;;;;5056853;28;20061;-78
2023/10/08 11:43:57;;;;;;;13.30;3.30;;;20.90;99.90;;;;;;5052639;28;20127;-77
2023/10/08 11:46:32;;;;;;;13.80;3.53;;;20.90;99.90;;;;;;5029919;28;20288;-78
2023/10/08 11:49:04;;;;;;;8.63;3.83;;;20.90;99.90;;;;;;5049820;28;20413;-77
2023/10/08 11:51:35;;;;;;;11.57;3.58;;;20.80;99.90;;;;;;5043044;28;20081;-77
2023/10/08 11:54:04;;;;;;;10.43;3.40;;;20.80;99.90;;;;;;5050289;28;20098;-78
2023/10/08 11:56:33;;;;;;;11.90;2.80;;;20.80;99.90;;;;;;5035088;28;20053;-78
2023/10/08 11:59:08;;;;;;;10.82;3.45;;;20.80;99.90;;;;;;5051141;28;20050;-78
2023/10/08 12:01:42;;;;;;;17.10;3.65;;;20.80;99.90;;;;;;5047144;28;20052;-78
2023/10/08 12:04:15;;;;;;;12.13;3.53;;;20.80;99.90;;;;;;5049645;28;20050;-78
2023/10/08 12:06:47;;;;;;;9.57;2.83;;;20.80;99.90;;;;;;5039738;28;20048;-77
2023/10/08 12:09:14;;;;;;;13.13;3.47;;;20.80;99.90;;;;;;5051401;28;20095;-78
2023/10/08 12:11:42;;;;;;;17.58;4.28;;;20.90;99.90;;;;;;5052419;28;20045;-77
2023/10/08 12:14:10;;;;;;;11.63;3.13;;;21.00;99.90;;;;;;5050676;28;20056;-78
2023/10/08 12:16:39;;;;;;;14.55;3.22;;;21.10;99.90;;;;;;5045506;28;20056;-78
2023/10/08 12:19:15;;;;;;;19.85;3.95;;;21.20;99.90;;;;;;5048203;28;20045;-77
2023/10/08 12:21:46;;;;;;;17.77;4.30;;;21.40;99.90;;;;;;5039585;28;20045;-78
2023/10/08 12:24:13;;;;;;;16.60;3.35;;;21.50;99.90;;;;;;5050509;28;20061;-77
2023/10/08 12:26:47;;;;;;;15.02;4.22;;;21.60;99.90;;;;;;5050727;28;20098;-77
2023/10/08 12:29:16;;;;;;;15.55;4.65;;;21.70;99.90;;;;;;5045920;28;20077;-77
2023/10/08 12:31:47;;;;;;;19.02;4.22;;;21.90;99.90;;;;;;5043042;28;20048;-77
2023/10/08 12:34:15;;;;;;;30.38;4.88;;;21.90;99.90;;;;;;5046945;28;20128;-77
2023/10/08 12:36:42;;;;;;;25.50;4.70;;;22.00;99.90;;;;;;5045265;28;20053;-78
2023/10/08 12:39:14;;;;;;;25.85;4.38;;;22.10;99.90;;;;;;5050231;28;20049;-78
2023/10/08 12:41:44;;;;;;;18.83;4.07;;;22.30;99.90;;;;;;5052696;28;20076;-78
2023/10/08 12:44:12;;;;;;;18.48;4.38;;;22.30;99.90;;;;;;5045054;28;20076;-78
2023/10/08 12:46:39;;;;;;;20.30;3.80;;;22.30;99.90;;;;;;5045364;28;20052;-77
2023/10/08 12:49:07;;;;;;;25.90;4.35;;;22.40;99.90;;;;;;5047596;28;20081;-77
2023/10/08 12:51:34;;;;;;;18.23;4.30;;;22.40;99.90;;;;;;5049537;28;20126;-77
2023/10/08 12:54:08;;;;;;;17.45;4.03;;;22.40;99.90;;;;;;5050349;28;20037;-78
2023/10/08 12:56:35;;;;;;;20.83;4.60;;;22.60;99.90;;;;;;5050796;28;20060;-77
2023/10/08 12:59:06;;;;;;;21.63;4.50;;;22.60;99.90;;;;;;5043732;28;20052;-77
2023/10/08 13:01:36;;;;;;;21.63;5.47;;;22.60;99.90;;;;;;5043152;28;20049;-78
2023/10/08 13:04:07;;;;;;;20.05;4.88;;;22.60;99.90;;;;;;5047964;28;20049;-78
2023/10/08 13:06:37;;;;;;;24.73;4.32;;;22.60;99.90;;;;;;5054915;28;20077;-77
2023/10/08 13:09:12;;;;;;;20.80;5.05;;;22.60;99.90;;;;;;5048758;28;20141;-77
2023/10/08 13:11:40;;;;;;;18.63;3.92;;;22.60;99.90;;;;;;5050158;28;20059;-77
2023/10/08 13:14:07;;;;;;;26.48;3.92;;;22.60;99.90;;;;;;5045166;28;20050;-78
2023/10/08 13:16:37;;;;;;;16.05;4.35;;;22.50;99.90;;;;;;5041980;28;20160;-78
2023/10/08 13:19:04;;;;;;;16.77;4.53;;;22.60;99.90;;;;;;5049975;28;20136;-78
2023/10/08 13:21:32;;;;;;;23.50;5.00;;;22.60;99.90;;;;;;5053109;28;20499;-78
2023/10/08 13:24:00;;;;;;;21.23;3.42;;;22.60;99.90;;;;;;5052145;28;20045;-77
2023/10/08 13:26:31;;;;;;;17.73;4.43;;;22.60;99.90;;;;;;5046594;28;20132;-77
2023/10/08 13:28:58;;;;;;;14.40;3.83;;;22.70;99.90;;;;;;5045056;28;20398;-77
2023/10/08 13:31:26;;;;;;;25.40;4.60;;;22.60;99.90;;;;;;5039633;28;20069;-78
2023/10/08 13:33:56;;;;;;;21.35;4.13;;;22.70;99.90;;;;;;5046631;28;20110;-77
2023/10/08 13:36:23;;;;;;;18.15;4.38;;;22.70;99.90;;;;;;5051695;28;20060;-78
2023/10/08 13:38:51;;;;;;;14.10;4.20;;;22.80;99.90;;;;;;5048834;28;20061;-77
2023/10/08 13:41:18;;;;;;;17.40;4.07;;;22.80;99.90;;;;;;5043525;28;20474;-77
2023/10/08 13:43:46;;;;;;;15.93;3.95;;;23.00;99.90;;;;;;5046844;28;20486;-78
2023/10/08 13:46:15;;;;;;;18.00;3.20;;;23.10;99.90;;;;;;5037074;28;20083;-78
2023/10/08 13:48:46;;;;;;;17.58;4.97;;;23.10;99.90;;;;;;5052325;28;20049;-78
2023/10/08 13:51:15;;;;;;;22.67;3.90;;;23.20;99.90;;;;;;5050134;28;20052;-78
2023/10/08 13:53:45;;;;;;;21.77;4.03;;;23.10;99.90;;;;;;5048545;28;20467;-78
2023/10/08 13:56:12;;;;;;;;;;;23.10;99.90;;;;;;5045650;28;20132;-78
2023/10/08 13:58:46;;;;;;;19.45;5.30;;;23.20;99.90;;;;;;5028375;28;19921;-77
2023/10/08 14:01:19;;;;;;;15.40;4.43;;;23.10;99.90;;;;;;5041575;28;20054;-77
2023/10/08 14:03:47;;;;;;;15.27;4.43;;;23.20;99.90;;;;;;5037090;28;20063;-77
2023/10/08 14:06:17;;;;;;;17.83;4.65;;;23.20;99.90;;;;;;5049166;28;20052;-75
2023/10/08 14:08:51;;;;;;;12.38;3.30;;;23.30;99.90;;;;;;5044846;28;20072;-77
2023/10/08 14:11:19;;;;;;;17.20;4.35;;;23.20;99.90;;;;;;5042865;28;20042;-76